sensor_id;sensor_type;location;lat;lon;timestamp;pressure;altitude;pressure_sealevel;temperature;humidity
79250;BME280;68679;51.030;7.584;2024-03-23T00:52:05;98201.25;;;9.35;68.40
79250;BME280;68679;51.030;7.584;2024-03-23T00:54:31;98199.75;;;9.29;68.27
79250;BME280;68679;51.030;7.584;2024-03-23T00:56:57;98194.53;;;9.29;68.56
79250;BME280;68679;51.030;7.584;2024-03-23T00:59:22;98189.06;;;9.26;68.50
79250;BME280;68679;51.030;7.584;2024-03-23T01:01:52;98181.03;;;9.22;68.46
79250;BME280;68679;51.030;7.584;2024-03-23T01:04:17;98169.13;;;9.11;68.55
79250;BME280;68679;51.030;7.584;2024-03-23T01:06:42;98178.88;;;9.05;68.57
79250;BME280;68679;51.030;7.584;2024-03-23T01:09:07;98185.44;;;9.03;68.62
79250;BME280;68679;51.030;7.584;2024-03-23T01:11:35;98197.44;;;9.04;68.74
79250;BME280;68679;51.030;7.584;2024-03-23T01:14:01;98184.94;;;9.01;68.64
79250;BME280;68679;51.030;7.584;2024-03-23T01:16:26;98184.66;;;9.02;68.63
79250;BME280;68679;51.030;7.584;2024-03-23T01:18:51;98186.22;;;9.03;68.91
79250;BME280;68679;51.030;7.584;2024-03-23T01:21:16;98184.38;;;9.04;68.50
79250;BME280;68679;51.030;7.584;2024-03-23T01:23:42;98177.94;;;8.96;68.44
79250;BME280;68679;51.030;7.584;2024-03-23T01:26:07;98170.09;;;8.96;68.47
79250;BME280;68679;51.030;7.584;2024-03-23T01:28:33;98174.25;;;8.97;68.41
79250;BME280;68679;51.030;7.584;2024-03-23T01:30:58;98175.63;;;8.95;68.64
79250;BME280;68679;51.030;7.584;2024-03-23T01:33:23;98167.00;;;8.94;68.25
79250;BME280;68679;51.030;7.584;2024-03-23T01:35:48;98170.34;;;8.76;68.87
79250;BME280;68679;51.030;7.584;2024-03-23T01:38:14;98162.72;;;8.79;68.95
79250;BME280;68679;51.030;7.584;2024-03-23T01:40:39;98166.81;;;8.85;68.61
79250;BME280;68679;51.030;7.584;2024-03-23T01:43:05;98175.72;;;8.84;68.81
79250;BME280;68679;51.030;7.584;2024-03-23T01:45:32;98173.63;;;8.86;68.48
79250;BME280;68679;51.030;7.584;2024-03-23T01:47:58;98173.41;;;8.83;68.71
79250;BME280;68679;51.030;7.584;2024-03-23T01:50:24;98177.28;;;8.85;68.59
79250;BME280;68679;51.030;7.584;2024-03-23T01:52:50;98166.63;;;8.82;68.67
79250;BME280;68679;51.030;7.584;2024-03-23T01:55:16;98164.56;;;8.79;68.53
79250;BME280;68679;51.030;7.584;2024-03-23T01:57:41;98163.59;;;8.75;68.64
79250;BME280;68679;51.030;7.584;2024-03-23T02:00:07;98153.63;;;8.77;68.57
79250;BME280;68679;51.030;7.584;2024-03-23T02:02:32;98159.69;;;8.72;68.59
79250;BME280;68679;51.030;7.584;2024-03-23T02:04:57;98157.13;;;8.67;68.65
79250;BME280;68679;51.030;7.584;2024-03-23T02:07:23;98153.19;;;8.70;68.55
79250;BME280;68679;51.030;7.584;2024-03-23T02:09:50;98158.34;;;8.75;68.64
79250;BME280;68679;51.030;7.584;2024-03-23T02:12:17;98150.78;;;8.73;68.45
79250;BME280;68679;51.030;7.584;2024-03-23T02:14:42;98127.09;;;8.65;68.57
79250;BME280;68679;51.030;7.584;2024-03-23T02:17:08;98128.72;;;8.60;68.68
79250;BME280;68679;51.030;7.584;2024-03-23T02:19:34;98129.78;;;8.59;68.79
79250;BME280;68679;51.030;7.584;2024-03-23T02:21:59;98137.63;;;8.59;68.75
79250;BME280;68679;51.030;7.584;2024-03-23T02:24:24;98143.13;;;8.58;68.66
79250;BME280;68679;51.030;7.584;2024-03-23T02:26:50;98141.88;;;8.55;68.48
79250;BME280;68679;51.030;7.584;2024-03-23T02:29:15;98126.69;;;8.57;68.69
79250;BME280;68679;51.030;7.584;2024-03-23T02:31:40;98125.66;;;8.53;68.65
79250;BME280;68679;51.030;7.584;2024-03-23T02:34:06;98129.06;;;8.54;68.64
79250;BME280;68679;51.030;7.584;2024-03-23T02:36:31;98128.56;;;8.52;68.59
79250;BME280;68679;51.030;7.584;2024-03-23T02:38:56;98130.47;;;8.46;68.41
79250;BME280;68679;51.030;7.584;2024-03-23T02:41:22;98137.34;;;8.37;68.55
79250;BME280;68679;51.030;7.584;2024-03-23T02:43:51;98144.16;;;8.33;68.85
79250;BME280;68679;51.030;7.584;2024-03-23T02:46:17;98144.69;;;8.30;68.58
79250;BME280;68679;51.030;7.584;2024-03-23T02:48:42;98132.69;;;8.29;68.94
79250;BME280;68679;51.030;7.584;2024-03-23T02:51:08;98146.00;;;8.32;68.55
79250;BME280;68679;51.030;7.584;2024-03-23T02:53:34;98139.47;;;8.30;68.51
79250;BME280;68679;51.030;7.584;2024-03-23T02:55:59;98147.25;;;8.35;68.83
79250;BME280;68679;51.030;7.584;2024-03-23T02:58:24;98145.75;;;8.29;68.20
79250;BME280;68679;51.030;7.584;2024-03-23T03:00:49;98153.88;;;8.27;68.65
79250;BME280;68679;51.030;7.584;2024-03-23T03:03:16;98161.53;;;8.19;68.57
79250;BME280;68679;51.030;7.584;2024-03-23T03:05:41;98166.75;;;8.19;69.00
79250;BME280;68679;51.030;7.584;2024-03-23T03:08:06;98163.09;;;8.20;68.34
79250;BME280;68679;51.030;7.584;2024-03-23T03:10:32;98164.25;;;8.09;68.93
79250;BME280;68679;51.030;7.584;2024-03-23T03:13:00;98170.75;;;8.11;68.47
79250;BME280;68679;51.030;7.584;2024-03-23T03:15:25;98178.28;;;8.13;68.04
79250;BME280;68679;51.030;7.584;2024-03-23T03:17:50;98164.16;;;7.90;68.02
79250;BME280;68679;51.030;7.584;2024-03-23T03:20:16;98165.50;;;7.82;68.28
79250;BME280;68679;51.030;7.584;2024-03-23T03:22:42;98162.41;;;7.80;68.56
79250;BME280;68679;51.030;7.584;2024-03-23T03:25:08;98166.31;;;7.83;68.27
79250;BME280;68679;51.030;7.584;2024-03-23T03:27:33;98154.78;;;7.89;68.07
79250;BME280;68679;51.030;7.584;2024-03-23T03:29:59;98162.38;;;7.85;68.16
79250;BME280;68679;51.030;7.584;2024-03-23T03:32:27;98162.72;;;7.73;67.87
79250;BME280;68679;51.030;7.584;2024-03-23T03:34:53;98171.63;;;7.72;67.88
79250;BME280;68679;51.030;7.584;2024-03-23T03:37:18;98188.00;;;7.78;68.30
79250;BME280;68679;51.030;7.584;2024-03-23T03:39:43;98192.44;;;7.77;68.32
79250;BME280;68679;51.030;7.584;2024-03-23T03:42:08;98194.81;;;7.74;68.38
79250;BME280;68679;51.030;7.584;2024-03-23T03:44:34;98180.22;;;7.73;67.85
79250;BME280;68679;51.030;7.584;2024-03-23T03:46:59;98166.19;;;7.64;67.66
79250;BME280;68679;51.030;7.584;2024-03-23T03:49:24;98169.63;;;7.59;68.16
79250;BME280;68679;51.030;7.584;2024-03-23T03:51:50;98169.13;;;7.52;67.53
79250;BME280;68679;51.030;7.584;2024-03-23T03:54:15;98168.34;;;7.51;67.76
79250;BME280;68679;51.030;7.584;2024-03-23T03:56:40;98165.81;;;7.46;67.81
79250;BME280;68679;51.030;7.584;2024-03-23T03:59:06;98168.13;;;7.48;67.66
79250;BME280;68679;51.030;7.584;2024-03-23T04:01:31;98161.69;;;7.40;67.20
79250;BME280;68679;51.030;7.584;2024-03-23T04:03:56;98164.63;;;7.29;67.42
79250;BME280;68679;51.030;7.584;2024-03-23T04:06:22;98162.53;;;7.25;67.56
79250;BME280;68679;51.030;7.584;2024-03-23T04:08:47;98166.16;;;7.30;67.36
79250;BME280;68679;51.030;7.584;2024-03-23T04:11:12;98171.59;;;7.33;67.71
79250;BME280;68679;51.030;7.584;2024-03-23T04:13:38;98175.81;;;7.29;68.16
79250;BME280;68679;51.030;7.584;2024-03-23T04:16:03;98171.66;;;7.28;68.01
79250;BME280;68679;51.030;7.584;2024-03-23T04:18:28;98175.28;;;7.32;67.58
79250;BME280;68679;51.030;7.584;2024-03-23T04:20:54;98190.13;;;7.32;68.01
79250;BME280;68679;51.030;7.584;2024-03-23T04:23:19;98191.44;;;7.34;67.48
79250;BME280;68679;51.030;7.584;2024-03-23T04:25:46;98184.13;;;7.36;67.72
79250;BME280;68679;51.030;7.584;2024-03-23T04:28:11;98192.25;;;7.30;67.24
79250;BME280;68679;51.030;7.584;2024-03-23T04:30:36;98194.63;;;7.21;67.17
79250;BME280;68679;51.030;7.584;2024-03-23T04:33:02;98192.34;;;7.09;67.07
79250;BME280;68679;51.030;7.584;2024-03-23T04:35:27;98191.09;;;6.96;67.50
79250;BME280;68679;51.030;7.584;2024-03-23T04:37:53;98180.94;;;7.00;67.76
79250;BME280;68679;51.030;7.584;2024-03-23T04:40:19;98193.72;;;6.91;67.34
79250;BME280;68679;51.030;7.584;2024-03-23T04:42:44;98178.34;;;6.95;68.19
79250;BME280;68679;51.030;7.584;2024-03-23T04:45:09;98186.72;;;6.92;67.35
79250;BME280;68679;51.030;7.584;2024-03-23T04:47:36;98192.16;;;6.95;67.84
79250;BME280;68679;51.030;7.584;2024-03-23T04:50:02;98195.81;;;6.89;67.36
79250;BME280;68679;51.030;7.584;2024-03-23T04:52:28;98197.97;;;6.72;68.42
79250;BME280;68679;51.030;7.584;2024-03-23T04:54:53;98207.31;;;6.83;67.93
79250;BME280;68679;51.030;7.584;2024-03-23T04:57:19;98210.44;;;6.85;67.86
79250;BME280;68679;51.030;7.584;2024-03-23T04:59:44;98209.16;;;6.83;67.73
79250;BME280;68679;51.030;7.584;2024-03-23T05:02:09;98205.75;;;6.82;67.73
79250;BME280;68679;51.030;7.584;2024-03-23T05:04:35;98207.59;;;6.77;67.66
79250;BME280;68679;51.030;7.584;2024-03-23T05:07:02;98202.38;;;6.77;68.46
79250;BME280;68679;51.030;7.584;2024-03-23T05:09:27;98207.56;;;6.87;68.50
79250;BME280;68679;51.030;7.584;2024-03-23T05:11:55;98212.53;;;6.78;67.57
79250;BME280;68679;51.030;7.584;2024-03-23T05:14:21;98219.31;;;6.79;67.84
79250;BME280;68679;51.030;7.584;2024-03-23T05:16:46;98209.94;;;6.78;67.66
79250;BME280;68679;51.030;7.584;2024-03-23T05:19:12;98213.09;;;6.75;67.86
79250;BME280;68679;51.030;7.584;2024-03-23T05:21:37;98212.56;;;6.73;67.58
79250;BME280;68679;51.030;7.584;2024-03-23T05:24:02;98215.41;;;6.77;67.65
79250;BME280;68679;51.030;7.584;2024-03-23T05:26:28;98211.75;;;6.78;67.71
79250;BME280;68679;51.030;7.584;2024-03-23T05:28:54;98211.75;;;6.83;67.77
79250;BME280;68679;51.030;7.584;2024-03-23T05:31:23;98215.13;;;6.83;67.52
79250;BME280;68679;51.030;7.584;2024-03-23T05:33:49;98212.53;;;6.83;67.63
79250;BME280;68679;51.030;7.584;2024-03-23T05:36:14;98220.88;;;6.80;67.55
79250;BME280;68679;51.030;7.584;2024-03-23T05:38:39;98220.13;;;6.80;67.58
79250;BME280;68679;51.030;7.584;2024-03-23T05:41:05;98220.88;;;6.80;67.51
79250;BME280;68679;51.030;7.584;2024-03-23T05:43:30;98221.41;;;6.77;67.37
79250;BME280;68679;51.030;7.584;2024-03-23T05:45:57;98223.22;;;6.77;67.52
79250;BME280;68679;51.030;7.584;2024-03-23T05:48:22;98225.56;;;6.78;67.55
79250;BME280;68679;51.030;7.584;2024-03-23T05:50:48;98220.63;;;6.77;67.79
79250;BME280;68679;51.030;7.584;2024-03-23T05:53:17;98218.28;;;6.75;67.50
79250;BME280;68679;51.030;7.584;2024-03-23T05:55:43;98219.34;;;6.74;67.70
79250;BME280;68679;51.030;7.584;2024-03-23T05:58:09;98217.75;;;6.73;67.51
79250;BME280;68679;51.030;7.584;2024-03-23T06:00:35;98223.78;;;6.74;67.68
79250;BME280;68679;51.030;7.584;2024-03-23T06:03:00;98218.03;;;6.71;67.76
79250;BME280;68679;51.030;7.584;2024-03-23T06:05:26;98224.03;;;6.72;67.71
79250;BME280;68679;51.030;7.584;2024-03-23T06:07:51;98228.19;;;6.73;67.90
79250;BME280;68679;51.030;7.584;2024-03-23T06:10:16;98228.19;;;6.73;68.02
79250;BME280;68679;51.030;7.584;2024-03-23T06:12:42;98228.19;;;6.73;67.61
79250;BME280;68679;51.030;7.584;2024-03-23T06:15:07;98231.31;;;6.75;67.65
79250;BME280;68679;51.030;7.584;2024-03-23T06:17:38;98229.22;;;6.77;67.91
79250;BME280;68679;51.030;7.584;2024-03-23T06:20:04;98230.25;;;6.81;68.00
79250;BME280;68679;51.030;7.584;2024-03-23T06:22:31;98222.94;;;6.83;68.32
79250;BME280;68679;51.030;7.584;2024-03-23T06:24:56;98226.31;;;6.89;68.03
79250;BME280;68679;51.030;7.584;2024-03-23T06:27:22;98234.13;;;6.89;68.44
79250;BME280;68679;51.030;7.584;2024-03-23T06:29:47;98244.56;;;6.89;67.81
79250;BME280;68679;51.030;7.584;2024-03-23T06:32:12;98240.66;;;6.86;67.79
79250;BME280;68679;51.030;7.584;2024-03-23T06:34:37;98235.41;;;6.91;68.63
79250;BME280;68679;51.030;7.584;2024-03-23T06:37:03;98232.28;;;6.94;68.46
79250;BME280;68679;51.030;7.584;2024-03-23T06:39:28;98238.28;;;6.95;68.53
79250;BME280;68679;51.030;7.584;2024-03-23T06:41:54;98239.59;;;6.92;68.65
79250;BME280;68679;51.030;7.584;2024-03-23T06:44:20;98239.59;;;6.92;68.48
79250;BME280;68679;51.030;7.584;2024-03-23T06:46:45;98236.72;;;6.94;68.76
79250;BME280;68679;51.030;7.584;2024-03-23T06:49:11;98241.16;;;6.93;68.44
79250;BME280;68679;51.030;7.584;2024-03-23T06:51:36;98253.91;;;6.95;68.68
79250;BME280;68679;51.030;7.584;2024-03-23T06:54:03;98260.97;;;6.94;68.70
79250;BME280;68679;51.030;7.584;2024-03-23T06:56:29;98254.72;;;6.90;68.28
79250;BME280;68679;51.030;7.584;2024-03-23T06:58:54;98257.31;;;6.90;68.46
79250;BME280;68679;51.030;7.584;2024-03-23T07:01:19;98257.31;;;6.85;68.34
79250;BME280;68679;51.030;7.584;2024-03-23T07:03:44;98265.13;;;6.90;68.87
79250;BME280;68679;51.030;7.584;2024-03-23T07:06:10;98262.00;;;6.93;69.02
79250;BME280;68679;51.030;7.584;2024-03-23T07:08:35;98271.13;;;6.96;69.42
79250;BME280;68679;51.030;7.584;2024-03-23T07:11:01;98273.44;;;6.97;69.02
79250;BME280;68679;51.030;7.584;2024-03-23T07:13:27;98282.09;;;6.93;68.69
79250;BME280;68679;51.030;7.584;2024-03-23T07:15:53;98270.59;;;6.94;68.81
79250;BME280;68679;51.030;7.584;2024-03-23T07:18:20;98268.50;;;6.91;68.95
79250;BME280;68679;51.030;7.584;2024-03-23T07:20:55;98269.81;;;6.93;68.54
79250;BME280;68679;51.030;7.584;2024-03-23T07:23:24;98258.34;;;6.94;69.26
79250;BME280;68679;51.030;7.584;2024-03-23T07:26:00;98269.81;;;6.98;69.10
79250;BME280;68679;51.030;7.584;2024-03-23T07:28:25;98271.09;;;7.01;69.10
79250;BME280;68679;51.030;7.584;2024-03-23T07:31:08;98265.63;;;7.03;69.35
79250;BME280;68679;51.030;7.584;2024-03-23T07:33:35;98266.66;;;7.07;69.52
79250;BME280;68679;51.030;7.584;2024-03-23T07:36:00;98262.22;;;7.07;69.31
79250;BME280;68679;51.030;7.584;2024-03-23T07:38:27;98267.41;;;7.12;69.31
79250;BME280;68679;51.030;7.584;2024-03-23T07:41:02;98273.66;;;7.16;69.73
79250;BME280;68679;51.030;7.584;2024-03-23T07:43:28;98272.34;;;7.19;69.40
79250;BME280;68679;51.030;7.584;2024-03-23T07:45:53;98274.69;;;7.15;69.22
79250;BME280;68679;51.030;7.584;2024-03-23T07:48:21;98287.50;;;7.12;69.18
79250;BME280;68679;51.030;7.584;2024-03-23T07:53:28;98291.38;;;7.14;69.49
79250;BME280;68679;51.030;7.584;2024-03-23T07:56:07;98292.16;;;7.20;69.85
79250;BME280;68679;51.030;7.584;2024-03-23T07:58:33;98283.81;;;7.23;70.19
79250;BME280;68679;51.030;7.584;2024-03-23T08:01:12;98287.97;;;7.24;69.81
79250;BME280;68679;51.030;7.584;2024-03-23T08:03:40;98285.59;;;7.28;69.59
79250;BME280;68679;51.030;7.584;2024-03-23T08:06:20;98284.28;;;7.35;70.14
79250;BME280;68679;51.030;7.584;2024-03-23T08:08:47;98290.00;;;7.32;69.99
79250;BME280;68679;51.030;7.584;2024-03-23T08:11:12;98298.28;;;7.44;70.20
79250;BME280;68679;51.030;7.584;2024-03-23T08:13:39;98296.72;;;7.48;69.79
79250;BME280;68679;51.030;7.584;2024-03-23T08:16:05;98299.84;;;7.50;69.76
79250;BME280;68679;51.030;7.584;2024-03-23T08:18:30;98298.75;;;7.57;69.88
79250;BME280;68679;51.030;7.584;2024-03-23T08:21:00;98298.47;;;7.58;69.89
79250;BME280;68679;51.030;7.584;2024-03-23T08:23:27;98300.28;;;7.63;70.01
79250;BME280;68679;51.030;7.584;2024-03-23T08:25:57;98301.03;;;7.68;69.52
79250;BME280;68679;51.030;7.584;2024-03-23T08:28:22;98299.47;;;7.72;69.91
79250;BME280;68679;51.030;7.584;2024-03-23T08:30:48;98295.00;;;7.78;69.70
79250;BME280;68679;51.030;7.584;2024-03-23T08:33:14;98303.59;;;7.84;69.83
79250;BME280;68679;51.030;7.584;2024-03-23T08:35:39;98299.91;;;7.85;69.67
79250;BME280;68679;51.030;7.584;2024-03-23T08:38:05;98299.44;;;7.77;69.76
79250;BME280;68679;51.030;7.584;2024-03-23T08:40:30;98295.75;;;7.84;69.92
79250;BME280;68679;51.030;7.584;2024-03-23T08:42:55;98297.28;;;7.90;69.84
79250;BME280;68679;51.030;7.584;2024-03-23T08:45:21;98298.56;;;7.92;69.69
79250;BME280;68679;51.030;7.584;2024-03-23T08:47:46;98298.25;;;7.99;69.83
79250;BME280;68679;51.030;7.584;2024-03-23T08:50:11;98303.72;;;8.02;69.78
79250;BME280;68679;51.030;7.584;2024-03-23T08:52:36;98298.47;;;8.07;69.42
79250;BME280;68679;51.030;7.584;2024-03-23T08:55:02;98298.97;;;8.10;69.45
79250;BME280;68679;51.030;7.584;2024-03-23T08:57:27;98291.63;;;8.12;69.37
79250;BME280;68679;51.030;7.584;2024-03-23T08:59:52;98291.06;;;8.20;69.36
79250;BME280;68679;51.030;7.584;2024-03-23T09:02:17;98291.81;;;8.25;69.13
79250;BME280;68679;51.030;7.584;2024-03-23T09:04:44;98285.75;;;8.30;69.36
79250;BME280;68679;51.030;7.584;2024-03-23T09:07:09;98297.22;;;8.34;69.05
79250;BME280;68679;51.030;7.584;2024-03-23T09:09:34;98288.31;;;8.40;68.69
79250;BME280;68679;51.030;7.584;2024-03-23T09:12:02;98283.03;;;8.45;68.92
79250;BME280;68679;51.030;7.584;2024-03-23T09:14:28;98275.41;;;8.49;68.59
79250;BME280;68679;51.030;7.584;2024-03-23T09:16:54;98294.22;;;8.51;68.48
79250;BME280;68679;51.030;7.584;2024-03-23T09:19:20;98288.44;;;8.54;68.84
79250;BME280;68679;51.030;7.584;2024-03-23T09:21:45;98278.22;;;8.57;68.70
79250;BME280;68679;51.030;7.584;2024-03-23T09:24:10;98284.72;;;8.60;68.51
79250;BME280;68679;51.030;7.584;2024-03-23T09:26:36;98279.50;;;8.60;68.40
79250;BME280;68679;51.030;7.584;2024-03-23T09:29:01;98263.28;;;8.63;68.39
79250;BME280;68679;51.030;7.584;2024-03-23T09:31:26;98264.53;;;8.66;68.27
79250;BME280;68679;51.030;7.584;2024-03-23T09:33:52;98268.94;;;8.70;68.09
79250;BME280;68679;51.030;7.584;2024-03-23T09:36:17;98265.00;;;8.73;68.23
79250;BME280;68679;51.030;7.584;2024-03-23T09:38:43;98270.75;;;8.75;67.98
79250;BME280;68679;51.030;7.584;2024-03-23T09:41:08;98265.72;;;8.78;68.18
79250;BME280;68679;51.030;7.584;2024-03-23T09:43:34;98265.97;;;8.82;68.32
79250;BME280;68679;51.030;7.584;2024-03-23T09:46:01;98263.63;;;8.80;67.79
79250;BME280;68679;51.030;7.584;2024-03-23T09:48:27;98274.56;;;8.82;67.77
79250;BME280;68679;51.030;7.584;2024-03-23T09:50:52;98265.97;;;8.82;67.26
79250;BME280;68679;51.030;7.584;2024-03-23T09:53:17;98259.44;;;8.79;67.04
79250;BME280;68679;51.030;7.584;2024-03-23T09:55:44;98267.56;;;8.78;66.72
79250;BME280;68679;51.030;7.584;2024-03-23T09:58:17;98262.63;;;8.76;67.02
79250;BME280;68679;51.030;7.584;2024-03-23T10:00:43;98275.41;;;8.78;66.85
79250;BME280;68679;51.030;7.584;2024-03-23T10:03:08;98261.84;;;8.76;66.60
79250;BME280;68679;51.030;7.584;2024-03-23T10:05:36;98259.22;;;8.76;66.75
79250;BME280;68679;51.030;7.584;2024-03-23T10:10:39;98260.81;;;8.72;66.07
79250;BME280;68679;51.030;7.584;2024-03-23T10:13:04;98258.53;;;8.65;66.70
79250;BME280;68679;51.030;7.584;2024-03-23T10:15:29;98263.00;;;8.65;66.80
79250;BME280;68679;51.030;7.584;2024-03-23T10:17:55;98273.91;;;8.72;67.40
79250;BME280;68679;51.030;7.584;2024-03-23T10:20:21;98276.56;;;8.67;67.07
79250;BME280;68679;51.030;7.584;2024-03-23T10:22:48;98278.38;;;8.66;66.90
79250;BME280;68679;51.030;7.584;2024-03-23T10:25:13;98270.91;;;8.54;66.47
79250;BME280;68679;51.030;7.584;2024-03-23T10:27:39;98264.66;;;8.55;66.83
79250;BME280;68679;51.030;7.584;2024-03-23T10:30:12;98260.72;;;8.58;66.56
79250;BME280;68679;51.030;7.584;2024-03-23T10:32:38;98255.19;;;8.59;66.48
79250;BME280;68679;51.030;7.584;2024-03-23T10:35:16;98259.66;;;8.59;66.54
79250;BME280;68679;51.030;7.584;2024-03-23T10:37:44;98256.75;;;8.60;66.85
79250;BME280;68679;51.030;7.584;2024-03-23T10:40:11;98253.88;;;8.62;67.13
79250;BME280;68679;51.030;7.584;2024-03-23T10:42:37;98254.81;;;8.71;67.30
79250;BME280;68679;51.030;7.584;2024-03-23T10:45:07;98243.53;;;8.76;67.33
79250;BME280;68679;51.030;7.584;2024-03-23T10:47:34;98256.31;;;8.77;66.85
79250;BME280;68679;51.030;7.584;2024-03-23T10:50:00;98246.16;;;8.76;66.79
79250;BME280;68679;51.030;7.584;2024-03-23T10:52:25;98242.53;;;8.72;66.85
79250;BME280;68679;51.030;7.584;2024-03-23T10:54:51;98242.97;;;8.79;67.13
79250;BME280;68679;51.030;7.584;2024-03-23T10:57:20;98246.66;;;8.78;66.76
79250;BME280;68679;51.030;7.584;2024-03-23T10:59:46;98254.03;;;8.71;66.10
79250;BME280;68679;51.030;7.584;2024-03-23T11:02:22;98257.44;;;8.71;66.68
79250;BME280;68679;51.030;7.584;2024-03-23T11:04:47;98248.97;;;8.79;66.59
79250;BME280;68679;51.030;7.584;2024-03-23T11:09:50;98236.88;;;8.89;66.08
79250;BME280;68679;51.030;7.584;2024-03-23T11:14:45;98256.00;;;8.84;67.07
79250;BME280;68679;51.030;7.584;2024-03-23T11:17:10;98236.56;;;8.90;66.42
79250;BME280;68679;51.030;7.584;2024-03-23T11:19:37;98238.66;;;8.93;66.52
79250;BME280;68679;51.030;7.584;2024-03-23T11:22:03;98268.72;;;8.91;65.13
79250;BME280;68679;51.030;7.584;2024-03-23T11:24:30;98314.72;;;8.92;65.77
79250;BME280;68679;51.030;7.584;2024-03-23T11:26:55;98312.19;;;8.86;63.36
79250;BME280;68679;51.030;7.584;2024-03-23T11:29:20;98295.03;;;8.75;63.94
79250;BME280;68679;51.030;7.584;2024-03-23T11:31:51;98301.19;;;8.60;63.95
79250;BME280;68679;51.030;7.584;2024-03-23T11:34:17;98306.72;;;8.54;64.16
79250;BME280;68679;51.030;7.584;2024-03-23T11:36:43;98307.00;;;8.52;63.61
79250;BME280;68679;51.030;7.584;2024-03-23T11:39:16;98302.88;;;8.46;63.88
79250;BME280;68679;51.030;7.584;2024-03-23T11:41:52;98312.56;;;8.46;63.87
79250;BME280;68679;51.030;7.584;2024-03-23T11:44:19;98310.22;;;8.44;64.15
79250;BME280;68679;51.030;7.584;2024-03-23T11:46:45;98314.09;;;8.47;64.45
79250;BME280;68679;51.030;7.584;2024-03-23T11:49:28;98336.81;;;8.51;64.90
79250;BME280;68679;51.030;7.584;2024-03-23T11:51:56;98338.94;;;8.49;64.64
79250;BME280;68679;51.030;7.584;2024-03-23T11:54:22;98361.13;;;8.47;64.84
79250;BME280;68679;51.030;7.584;2024-03-23T11:56:58;98387.38;;;8.26;65.14
79250;BME280;68679;51.030;7.584;2024-03-23T11:59:40;98374.13;;;8.13;64.90
79250;BME280;68679;51.030;7.584;2024-03-23T12:02:13;98362.50;;;7.95;65.62
79250;BME280;68679;51.030;7.584;2024-03-23T12:04:42;98350.53;;;7.89;65.63
79250;BME280;68679;51.030;7.584;2024-03-23T12:07:14;98343.50;;;7.84;65.61
79250;BME280;68679;51.030;7.584;2024-03-23T12:09:42;98326.50;;;7.87;65.30
79250;BME280;68679;51.030;7.584;2024-03-23T12:12:14;98313.44;;;7.92;65.34
79250;BME280;68679;51.030;7.584;2024-03-23T12:15:04;98288.38;;;7.96;65.77
79250;BME280;68679;51.030;7.584;2024-03-23T12:17:30;98289.91;;;7.97;65.29
79250;BME280;68679;51.030;7.584;2024-03-23T12:19:56;98283.34;;;7.99;65.64
79250;BME280;68679;51.030;7.584;2024-03-23T12:22:22;98289.91;;;7.97;65.77
79250;BME280;68679;51.030;7.584;2024-03-23T12:24:47;98290.97;;;7.96;65.62
79250;BME280;68679;51.030;7.584;2024-03-23T12:27:13;98284.19;;;7.95;65.99
79250;BME280;68679;51.030;7.584;2024-03-23T12:29:38;98292.56;;;7.92;65.49
79250;BME280;68679;51.030;7.584;2024-03-23T12:32:04;98287.34;;;7.92;65.76
79250;BME280;68679;51.030;7.584;2024-03-23T12:34:30;98299.13;;;7.89;65.97
79250;BME280;68679;51.030;7.584;2024-03-23T12:36:55;98292.88;;;7.85;65.96
79250;BME280;68679;51.030;7.584;2024-03-23T12:39:21;98287.94;;;7.84;65.97
79250;BME280;68679;51.030;7.584;2024-03-23T12:41:47;98284.78;;;7.82;65.67
79250;BME280;68679;51.030;7.584;2024-03-23T12:44:12;98288.22;;;7.77;65.64
79250;BME280;68679;51.030;7.584;2024-03-23T12:46:39;98289.22;;;7.81;65.70
79250;BME280;68679;51.030;7.584;2024-03-23T12:49:04;98293.66;;;7.80;65.70
79250;BME280;68679;51.030;7.584;2024-03-23T12:51:30;98295.50;;;7.80;65.23
79250;BME280;68679;51.030;7.584;2024-03-23T12:53:56;98289.78;;;7.78;65.58
79250;BME280;68679;51.030;7.584;2024-03-23T12:56:21;98285.88;;;7.75;65.78
79250;BME280;68679;51.030;7.584;2024-03-23T12:58:46;98289.53;;;7.74;66.34
79250;BME280;68679;51.030;7.584;2024-03-23T13:01:16;98291.38;;;7.74;66.21
79250;BME280;68679;51.030;7.584;2024-03-23T13:03:41;98293.44;;;7.77;66.20
79250;BME280;68679;51.030;7.584;2024-03-23T13:06:09;98298.38;;;7.78;66.36
79250;BME280;68679;51.030;7.584;2024-03-23T13:08:34;98314.31;;;7.77;66.21
79250;BME280;68679;51.030;7.584;2024-03-23T13:11:00;98330.19;;;7.86;67.17
79250;BME280;68679;51.030;7.584;2024-03-23T13:13:25;98337.53;;;7.78;66.44
79250;BME280;68679;51.030;7.584;2024-03-23T13:15:50;98332.03;;;7.80;66.77
79250;BME280;68679;51.030;7.584;2024-03-23T13:18:16;98321.69;;;7.65;66.14
79250;BME280;68679;51.030;7.584;2024-03-23T13:20:41;98315.75;;;7.54;66.66
79250;BME280;68679;51.030;7.584;2024-03-23T13:23:06;98319.66;;;7.51;66.83
79250;BME280;68679;51.030;7.584;2024-03-23T13:25:32;98322.19;;;7.72;68.06
79250;BME280;68679;51.030;7.584;2024-03-23T13:27:58;98333.06;;;7.84;68.66
79250;BME280;68679;51.030;7.584;2024-03-23T13:30:23;98313.47;;;7.87;68.23
79250;BME280;68679;51.030;7.584;2024-03-23T13:32:48;98299.41;;;7.83;67.35
79250;BME280;68679;51.030;7.584;2024-03-23T13:35:14;98296.81;;;7.83;67.15
79250;BME280;68679;51.030;7.584;2024-03-23T13:37:39;98296.75;;;7.88;67.80
79250;BME280;68679;51.030;7.584;2024-03-23T13:40:06;98287.06;;;7.93;67.47
79250;BME280;68679;51.030;7.584;2024-03-23T13:42:31;98278.38;;;8.03;68.14
79250;BME280;68679;51.030;7.584;2024-03-23T13:44:56;98278.81;;;8.15;69.08
79250;BME280;68679;51.030;7.584;2024-03-23T13:47:22;98268.03;;;8.27;69.76
79250;BME280;68679;51.030;7.584;2024-03-23T13:49:47;98275.53;;;8.33;70.39
79250;BME280;68679;51.030;7.584;2024-03-23T13:52:14;98271.91;;;8.29;69.28
79250;BME280;68679;51.030;7.584;2024-03-23T13:54:39;98266.38;;;8.36;69.42
79250;BME280;68679;51.030;7.584;2024-03-23T13:57:10;98268.69;;;8.43;70.16
79250;BME280;68679;51.030;7.584;2024-03-23T13:59:35;98261.38;;;8.45;70.00
79250;BME280;68679;51.030;7.584;2024-03-23T14:02:01;98274.75;;;8.38;67.89
79250;BME280;68679;51.030;7.584;2024-03-23T14:04:26;98261.50;;;8.24;68.46
79250;BME280;68679;51.030;7.584;2024-03-23T14:06:51;98260.09;;;8.37;68.39